หน้าหลัก
METAR-TAF:

METAR-TAF

ท่าอากาศยาน :

Lanseria, แอฟริกาใต้

ละติจูด: 25-56S, ลองจิจูด: 027-56E, ความสูง: 1377 ม.

การสังเกตสภาพอากาศปัจจุบัน

รายงานได้ทำขึ้นเมื่อ 4 ชั่วโมงและ 27 นาทีที่แล้ว ณ เวลา 20:00 UTC
ลมสงบ
อุณหภูมิ 19°C
ความชื้น 49%
ความกดอากาศ 1024 hPa
ทัศนวิสัย 10 กม. หรือมากกว่า
ไม่มีเมฆต่ำกว่า 1,500 ม. และไม่มีเมฆคิวมูโลนิมบัส

METAR: FALA 232000Z 00000KT CAVOK 19/08 Q1024 NOSIG

เวลา: 02:27 (00:27 UTC)

การพยากรณ์

รายงานได้ทำขึ้นเมื่อ 2 ชั่วโมงและ 27 นาทีที่แล้ว ณ เวลา 22:00 UTC
การพยากรณ์มีผลตั้งแต่วันที่ 24 ณ เวลา 00 UTC จนถึงวันที่ 24 ณ เวลา 24 UTC
ลม 3 นอตจากทิศทางซึ่งแปรผันได้
ทัศนวิสัย 10 กม. หรือมากกว่า
ไม่มีเมฆต่ำกว่า 1,500 ม. และไม่มีเมฆคิวมูโลนิมบัส

TAF: FALA 232200Z 2400/2424 VRB03KT CAVOK TX30/2413Z TN13/2403Z

สังเกตการณ์สภาพอากาศและพยากรณ์อากาศของสนามบินมากกว่า 4000 แห่ง (รายงาน METAR และ TAF).

สถานีที่ดูได้จะแสดงไว้ด้วยจุดสีเหลืองและสีแดงบนแผนที่.

เลื่อนเมาส์ไปเหนือจุดเพื่อดูชื่อสถานี.

แล้วคลิกเพื่อดูสังเกตการณ์และการพยากรณ์สภาพอากาศ.

ในการเปลี่ยนแผนที่: คลิกที่ปุ่มสีเขียวที่มีกากบาทสีดำเพื่อซูมเข้า; ที่ปุ่มสีเขียวที่มีขีดเพื่อซูมออก; หรือที่ลูกศรสีเขียวเพื่อไปยังแผนที่ที่อยู่ติดกัน.


METAR-TAF: